Argusville, North Dakota
Current Conditions -  °F | °C
As of 9:53 PM on Tuesday 21 Oct 2014 (Local Time) from KFAR Reporting Station
Clear Clear  
Wind Chill: 58°   Ceiling: Unl
Heat Index: 58°   Visibility: 10mi
Dew Point: 41°   Wind: 24mph
Humidity: 53%   Direction: 150°SSE
Pressure: 29.91"   Gusts: 35mph
Location:  47.05°N, 96.93°W
Report Text: KFAR 220253Z 15021G30KT 10SM CLR 14/05 A2991 RMK AO2 PK WND 15032/0223 SLP132 T01440050 53005
Loading
Personal Weather Stations






























Interactive Weather Map
Tropical Storm Tracking
New forecast layout! Learn more

10-Day Weather Forecast

Advertisements
Track Severe Weather on mobile